• Join FlightAware (Why Join?)
  • Login
  • US Flag 
12:29AM EST


 

Airport Tracker/Info


-or-


 

Live Flight TrackerFlight Track Log ✈ SKW4664 ✈ 07-Jun-2013 ✈ KFSD - KMSP

Flight Track Log - Related Links

Times and Time Zones

All times are in EDT time to prevent confusion due to time zone crossing. See the SKW4664 flight status page for this flight to view local times or setup timezone preferences in your user account.

Time Position Orientation Groundspeed Altitude Reporting Facility
EDT Latitude Longitude Course Direction KTS MPH feet Rate Location/Type
12:08PM 43.5419 -96.7061 115° Southeast 225 259 4,300  Level Minneapolis Center
12:09PM 43.5767 -96.6383 55° Northeast 221 254 7,300 2,520 Climbing Minneapolis Center
12:10PM 43.8416 -96.2544 53° Northeast  Level FlightAware Approximate
12:10PM 43.6219 -96.5642 50° Northeast 236 272 9,600  Level Minneapolis Center
12:11PM 43.9086 -96.1314 53° Northeast  Level FlightAware Approximate
12:11PM 43.6728 -96.4783 51° Northeast 261 300 11,800  Level Minneapolis Center
12:12PM 43.9766 -96.0091 52° Northeast  Level FlightAware Approximate
12:12PM 43.7381 -96.3722 50° Northeast 296 341 14,500  Level Minneapolis Center
12:13PM 43.7981 -96.2722 50° Northeast 338 389 15,100 960 Climbing Minneapolis Center
12:14PM 43.8636 -96.1628 50° Northeast 369 425 16,600 1,380 Climbing Minneapolis Center
12:15PM 43.9294 -96.0514 51° Northeast 376 433 18,000 1,440 Climbing Minneapolis Center
12:16PM 43.9964 -95.9389 50° Northeast 383 441 19,600 1,500 Climbing Minneapolis Center
12:17PM 44.0772 -95.8025 50° Northeast 386 444 21,200 1,200 Climbing Minneapolis Center
12:18PM 44.1453 -95.6858 51° Northeast 390 449 22,200 840 Climbing Minneapolis Center
12:19PM 44.2153 -95.5667 51° Northeast 397 457 23,000 360 Climbing Minneapolis Center
12:20PM 44.2886 -95.4397 51° Northeast 418 481 23,000  Level Minneapolis Center
12:21PM 44.3628 -95.3114 51° Northeast 425 489 23,000  Level Minneapolis Center
12:22PM 44.4503 -95.1608 51° Northeast 419 482 23,000 -960 Level Minneapolis Center
12:23PM 44.4958 -95.0044 68° East 444 511 21,100 -2,040 Descending Minneapolis Center
12:24PM 44.5350 -94.8411 71° East 444 511 18,900 -2,160 Descending Minneapolis Center
12:25PM 44.5719 -94.6864 71° East 424 488 16,700 -2,100 Descending Minneapolis Center
12:26PM 44.6042 -94.5456 72° East 395 455 14,600 -2,340 Descending Minneapolis Center
12:27PM 44.6436 -94.3767 72° East 378 435 11,900 -1,800 Descending Minneapolis Center
12:28PM 44.6747 -94.2411 72° East 367 422 11,000 -480 Descending Minneapolis Center
12:29PM 44.7053 -94.1058 72° East 363 418 11,000  Level Minneapolis Center
12:30PM 44.7350 -93.9731 72° East 358 412 11,000  Level Minneapolis Center
12:31PM 44.7642 -93.8414 73° East 354 407 11,000  Level Minneapolis Center
12:32PM 44.7933 -93.7097 73° East 352 405 11,000  Level Minneapolis Center
12:34PM 44.8267 -93.5564 73° East 337 388 11,000 -900 Level Minneapolis Center
12:35PM 44.8503 -93.4500 73° East 290 334 9,200 -1,500 Descending Minneapolis Center
12:36PM 44.8586 -93.3444 84° East 279 321 8,000 -1,260 Descending Minneapolis Center
12:37PM 44.7911 -93.3086 159° South 270 311 6,700 -1,620 Descending Minneapolis Center
12:38PM 44.7064 -93.2894 171° South 267 307 4,700 -1,320 Descending Minneapolis Center
12:39PM 44.6706 -93.2300 130° Southeast 245 282 4,000 -420 Descending Minneapolis Center
12:40PM 44.7131 -93.1947 31° Northeast 220 253 3,900 -600 Descending Minneapolis Center
12:41PM 44.7706 -93.2122 348° North 187 215 2,800 -1,080 Descending Minneapolis Center